Time;durP1;ratioP1;P1;durP2;ratioP2;P2;SDS_P1;SDS_P2;PMS_P1;PMS_P2;Temp;Humidity;BMP_temperature;BMP_pressure;BME280_temperature;BME280_humidity;BME280_pressure;Samples;Min_cycle;Max_cycle;Signal;HPM_P1;HPM_P2
2022/06/28 00:00:38;;;;;;;24.15;16.48;;;13.70;99.90;;;;;;5081630;28;20055;-69
2022/06/28 00:03:04;;;;;;;20.23;16.17;;;13.40;99.90;;;;;;5081090;28;20075;-69
2022/06/28 00:05:30;;;;;;;21.52;16.77;;;13.30;99.90;;;;;;5081174;28;20108;-68
2022/06/28 00:07:56;;;;;;;22.42;16.58;;;13.90;99.90;;;;;;5080684;28;20044;-69
2022/06/28 00:10:22;;;;;;;21.55;16.45;;;13.50;99.90;;;;;;5080900;28;20226;-69
2022/06/28 00:12:47;;;;;;;22.02;17.40;;;13.70;99.90;;;;;;5080602;28;20082;-69
2022/06/28 00:17:58;;;;;;;25.92;18.33;;;13.20;99.90;;;;;;5080875;28;20058;-69
2022/06/28 00:20:25;;;;;;;21.67;17.23;;;13.40;99.90;;;;;;5080978;28;20212;-69
2022/06/28 00:22:51;;;;;;;20.05;17.48;;;13.40;99.90;;;;;;5080155;28;20103;-69
2022/06/28 00:25:16;;;;;;;24.70;18.45;;;13.10;99.90;;;;;;5081254;28;20079;-69
2022/06/28 00:27:42;;;;;;;21.13;16.90;;;13.10;99.90;;;;;;5063066;28;20052;-69
2022/06/28 00:30:09;;;;;;;18.75;15.90;;;13.60;99.90;;;;;;5081073;28;20039;-69
2022/06/28 00:32:35;;;;;;;21.33;17.63;;;13.30;99.90;;;;;;5080907;28;20037;-70
2022/06/28 00:35:02;;;;;;;25.40;19.13;;;13.00;99.90;;;;;;5080455;28;20342;-69
2022/06/28 00:37:28;;;;;;;27.10;20.48;;;13.00;99.90;;;;;;5083064;28;20336;-69
2022/06/28 00:39:54;;;;;;;30.20;20.85;;;13.70;99.90;;;;;;5084239;28;20345;-70
2022/06/28 00:42:21;;;;;;;29.48;21.40;;;12.60;99.90;;;;;;5084483;28;20044;-69
2022/06/28 00:44:46;;;;;;;24.20;17.75;;;13.10;99.90;;;;;;5083078;28;20052;-69
2022/06/28 00:47:13;;;;;;;27.83;21.02;;;13.10;99.90;;;;;;5084461;28;20067;-69
2022/06/28 00:49:42;;;;;;;23.23;17.35;;;12.90;99.90;;;;;;5084361;28;20036;-69
2022/06/28 00:52:10;;;;;;;22.60;18.17;;;13.00;99.90;;;;;;5065866;28;20068;-70
2022/06/28 00:54:36;;;;;;;28.42;18.85;;;12.80;99.90;;;;;;5084426;28;20048;-69
2022/06/28 00:57:02;;;;;;;22.50;17.35;;;;;;;;;;5084150;28;20052;-69
2022/06/28 00:59:28;;;;;;;26.00;19.00;;;12.80;99.90;;;;;;5084262;28;20040;-70
2022/06/28 01:01:57;;;;;;;21.83;16.73;;;13.10;99.90;;;;;;5065977;28;20055;-69
2022/06/28 01:04:23;;;;;;;24.40;18.63;;;;;;;;;;5093574;28;20325;-69
2022/06/28 01:06:49;;;;;;;24.92;19.30;;;12.60;99.90;;;;;;5084708;28;20036;-69
2022/06/28 01:09:14;;;;;;;26.00;20.40;;;13.30;99.90;;;;;;5093376;28;20336;-70
2022/06/28 01:11:40;;;;;;;23.95;19.42;;;;;;;;;;5104430;28;20031;-69
2022/06/28 01:14:07;;;;;;;30.08;19.10;;;12.50;99.90;;;;;;5104062;28;20036;-69
2022/06/28 01:16:34;;;;;;;26.80;19.48;;;13.00;99.90;;;;;;5104292;28;20043;-69
2022/06/28 01:19:00;;;;;;;27.70;19.42;;;13.00;99.90;;;;;;5103439;28;20090;-69
2022/06/28 01:21:28;;;;;;;22.85;18.15;;;12.70;99.90;;;;;;5086446;28;20039;-69
2022/06/28 01:23:54;;;;;;;26.23;17.38;;;12.90;99.90;;;;;;5103907;28;20035;-69
2022/06/28 01:26:21;;;;;;;22.92;17.55;;;12.70;99.90;;;;;;5104188;28;20048;-69
2022/06/28 01:28:48;;;;;;;27.40;18.95;;;12.80;99.90;;;;;;5103522;28;20043;-69
2022/06/28 01:31:16;;;;;;;23.63;18.00;;;12.90;99.90;;;;;;5085946;28;20052;-69
2022/06/28 01:33:42;;;;;;;25.05;17.60;;;;;;;;;;5103312;28;20044;-69
2022/06/28 01:36:09;;;;;;;18.20;16.23;;;12.50;99.90;;;;;;5089183;28;20319;-69
2022/06/28 01:38:37;;;;;;;21.00;17.35;;;12.90;99.90;;;;;;5083758;28;20100;-69
2022/06/28 01:41:03;;;;;;;26.55;17.42;;;13.00;99.90;;;;;;5083414;28;20062;-69
2022/06/28 01:43:32;;;;;;;23.27;17.27;;;12.80;99.90;;;;;;5083691;28;20341;-69
2022/06/28 01:45:58;;;;;;;19.95;15.90;;;12.90;99.90;;;;;;5083000;28;20396;-69
2022/06/28 01:48:24;;;;;;;19.90;15.68;;;;;;;;;;5082726;28;20036;-69
2022/06/28 01:50:52;;;;;;;25.67;16.65;;;12.70;99.90;;;;;;5083219;28;20330;-69
2022/06/28 01:53:18;;;;;;;19.20;14.88;;;12.70;99.90;;;;;;5049018;28;20112;-69
2022/06/28 01:55:44;;;;;;;22.23;15.27;;;13.20;99.90;;;;;;5083250;28;20055;-69
2022/06/28 01:58:10;;;;;;;21.75;15.20;;;12.60;99.90;;;;;;5083122;28;20047;-69
2022/06/28 02:00:37;;;;;;;20.08;15.18;;;;;;;;;;5082899;28;20075;-69
2022/06/28 02:03:03;;;;;;;18.65;14.45;;;12.60;99.90;;;;;;5082503;28;20032;-69
2022/06/28 02:05:30;;;;;;;17.98;15.30;;;12.30;99.90;;;;;;5083385;28;20105;-69
2022/06/28 02:07:56;;;;;;;26.42;17.98;;;12.70;99.90;;;;;;5082608;28;20199;-69
2022/06/28 02:10:22;;;;;;;25.80;17.05;;;12.70;99.90;;;;;;5082959;28;20036;-69
2022/06/28 02:12:49;;;;;;;31.60;19.65;;;13.00;99.90;;;;;;5064679;28;20229;-65
2022/06/28 02:15:15;;;;;;;24.67;19.20;;;12.40;99.90;;;;;;5065161;28;20051;-65
2022/06/28 02:17:42;;;;;;;23.65;18.52;;;12.70;99.90;;;;;;5082112;28;20045;-64
2022/06/28 02:20:09;;;;;;;22.38;18.38;;;12.80;99.90;;;;;;5082469;28;20040;-64
2022/06/28 02:22:35;;;;;;;24.25;18.85;;;12.70;99.90;;;;;;5082786;28;20048;-65
2022/06/28 02:25:01;;;;;;;22.38;17.73;;;12.50;99.90;;;;;;5082237;28;20041;-64
2022/06/28 02:27:27;;;;;;;24.92;18.63;;;12.80;99.90;;;;;;5064631;28;20235;-65
2022/06/28 02:29:52;;;;;;;23.75;19.23;;;12.20;99.90;;;;;;5082119;28;20310;-65
2022/06/28 02:32:18;;;;;;;26.52;18.75;;;;;;;;;;5082599;28;20105;-64
2022/06/28 02:40:22;;;;;;;20.98;16.85;;;12.60;99.90;;;;;;5082530;28;20043;-64
2022/06/28 02:42:56;;;;;;;23.97;18.80;;;12.60;99.90;;;;;;5081911;28;20208;-64
2022/06/28 02:45:23;;;;;;;21.73;18.80;;;12.80;99.90;;;;;;5082343;28;20040;-65
2022/06/28 02:47:49;;;;;;;25.13;20.00;;;12.30;99.90;;;;;;5081454;28;20314;-65
2022/06/28 02:50:15;;;;;;;28.50;20.95;;;12.80;99.90;;;;;;5082123;28;20104;-64
2022/06/28 02:52:42;;;;;;;27.73;22.48;;;;;;;;;;5081704;28;20044;-65
2022/06/28 02:55:08;;;;;;;30.90;23.10;;;12.80;99.90;;;;;;5064131;28;20238;-64
2022/06/28 02:57:36;;;;;;;29.73;21.35;;;12.90;99.90;;;;;;5082542;28;20326;-64
2022/06/28 03:00:07;;;;;;;24.42;20.17;;;13.00;99.90;;;;;;5081170;28;20103;-64
2022/06/28 03:02:35;;;;;;;27.33;21.25;;;12.80;99.90;;;;;;5047076;28;20225;-64
2022/06/28 03:05:04;;;;;;;24.42;19.88;;;12.70;99.90;;;;;;5082082;28;20130;-65
2022/06/28 03:07:29;;;;;;;25.20;19.67;;;12.90;99.90;;;;;;5081965;28;20101;-64
2022/06/28 03:09:55;;;;;;;27.42;21.45;;;12.60;99.90;;;;;;5081811;28;20036;-65
2022/06/28 03:12:21;;;;;;;26.65;20.95;;;12.60;99.90;;;;;;5081855;28;20040;-65
2022/06/28 03:14:46;;;;;;;30.13;22.50;;;12.80;99.90;;;;;;5081518;28;20036;-65
2022/06/28 03:17:12;;;;;;;28.08;20.38;;;12.60;99.90;;;;;;5081517;28;20070;-65
2022/06/28 03:19:38;;;;;;;30.63;23.13;;;13.10;99.90;;;;;;5081626;28;20079;-65
2022/06/28 03:22:04;;;;;;;30.80;24.52;;;12.90;99.90;;;;;;5081293;28;20120;-65
2022/06/28 03:24:29;;;;;;;33.95;23.83;;;13.00;99.90;;;;;;5081403;28;20314;-65
2022/06/28 03:26:55;;;;;;;34.20;24.58;;;12.80;99.90;;;;;;5081213;28;20037;-65
2022/06/28 03:29:21;;;;;;;29.13;22.77;;;12.60;99.90;;;;;;5081561;28;20040;-69
2022/06/28 03:31:47;;;;;;;31.77;23.60;;;;;;;;;;5080522;28;20155;-69
2022/06/28 03:34:13;;;;;;;28.17;23.08;;;;;;;;;;5081322;28;20226;-69
2022/06/28 03:36:39;;;;;;;25.98;21.63;;;;;;;;;;5081275;28;20067;-69
2022/06/28 03:39:05;;;;;;;26.83;22.13;;;13.10;99.90;;;;;;5063644;28;20044;-69
2022/06/28 03:41:30;;;;;;;27.30;22.05;;;12.80;99.90;;;;;;5081408;28;20104;-69
2022/06/28 03:43:56;;;;;;;30.92;22.52;;;12.80;99.90;;;;;;5062401;28;20356;-69
2022/06/28 03:46:22;;;;;;;27.58;22.10;;;12.40;99.90;;;;;;5081370;28;20036;-69
2022/06/28 03:48:48;;;;;;;29.63;21.88;;;13.00;99.90;;;;;;5081006;28;20099;-69
2022/06/28 03:51:15;;;;;;;30.98;22.75;;;12.70;99.90;;;;;;5081198;28;20032;-68
2022/06/28 03:53:40;;;;;;;31.08;23.60;;;13.10;99.90;;;;;;5080863;28;20349;-69
2022/06/28 03:56:07;;;;;;;30.00;23.90;;;12.90;99.90;;;;;;5081166;28;20107;-69
2022/06/28 03:58:33;;;;;;;34.67;25.25;;;13.00;99.90;;;;;;5081034;28;20040;-69
2022/06/28 04:01:00;;;;;;;33.35;23.63;;;12.80;99.90;;;;;;5062641;28;20052;-69
2022/06/28 04:03:26;;;;;;;33.03;23.85;;;;;;;;;;5080701;28;20032;-69
2022/06/28 04:05:52;;;;;;;26.50;20.95;;;13.30;99.90;;;;;;5080499;28;20071;-70
2022/06/28 04:08:18;;;;;;;32.10;22.98;;;13.60;99.90;;;;;;5081793;28;20071;-70
2022/06/28 04:10:46;;;;;;;29.50;22.27;;;13.10;99.90;;;;;;5081472;28;20036;-69
2022/06/28 04:13:12;;;;;;;27.92;21.08;;;13.50;99.90;;;;;;5085003;28;20048;-69
2022/06/28 04:15:38;;;;;;;22.58;18.98;;;;;;;;;;5085253;28;20357;-69
2022/06/28 04:18:05;;;;;;;23.15;18.65;;;14.00;99.90;;;;;;5085073;28;20639;-68
2022/06/28 04:20:32;;;;;;;24.40;18.08;;;14.40;99.90;;;;;;5084950;28;20107;-69
2022/06/28 04:22:57;;;;;;;20.65;17.27;;;14.30;99.90;;;;;;5084989;28;20036;-69
2022/06/28 04:25:23;;;;;;;20.67;18.05;;;14.20;99.90;;;;;;5084614;28;20100;-69
2022/06/28 04:27:49;;;;;;;24.00;18.52;;;;;;;;;;5067019;28;20044;-69
2022/06/28 04:30:15;;;;;;;24.40;18.52;;;14.20;99.90;;;;;;5085215;28;20052;-68
2022/06/28 04:32:41;;;;;;;23.13;17.27;;;;;;;;;;5084552;28;20087;-68
2022/06/28 04:35:07;;;;;;;20.65;16.02;;;14.90;99.90;;;;;;5084739;28;20044;-68
2022/06/28 04:37:33;;;;;;;19.15;14.98;;;15.60;99.90;;;;;;5084749;28;20068;-68
2022/06/28 04:39:59;;;;;;;19.15;14.63;;;16.20;99.90;;;;;;5084611;28;20040;-68
2022/06/28 04:42:24;;;;;;;18.20;13.95;;;16.50;99.90;;;;;;5084377;28;20036;-68
2022/06/28 04:44:50;;;;;;;16.50;13.20;;;17.20;99.90;;;;;;5066917;28;20052;-68
2022/06/28 04:47:16;;;;;;;16.08;13.32;;;;;;;;;;5096044;28;20359;-68
2022/06/28 04:49:42;;;;;;;16.65;12.98;;;18.80;99.90;;;;;;5095953;28;20047;-68
2022/06/28 04:52:08;;;;;;;13.75;11.95;;;19.20;99.90;;;;;;5095653;28;20037;-68
2022/06/28 04:54:34;;;;;;;16.17;11.68;;;19.90;99.90;;;;;;5095457;28;20055;-68
2022/06/28 04:57:00;;;;;;;18.20;11.48;;;20.40;99.90;;;;;;5072759;28;20039;-68
2022/06/28 04:59:25;;;;;;;15.40;11.48;;;20.60;99.90;;;;;;5088490;28;20071;-69
2022/06/28 05:01:51;;;;;;;14.18;10.23;;;;;;;;;;5093280;28;20044;-68
2022/06/28 05:04:17;;;;;;;15.27;10.15;;;22.30;99.90;;;;;;5103079;28;20039;-65
2022/06/28 05:06:43;;;;;;;12.57;9.77;;;23.50;99.90;;;;;;5103341;28;20278;-70
2022/06/28 05:09:09;;;;;;;13.93;9.73;;;24.00;99.90;;;;;;5103926;28;20028;-69
2022/06/28 05:11:34;;;;;;;10.02;8.35;;;23.70;99.90;;;;;;5103879;28;20193;-70
2022/06/28 05:14:00;;;;;;;12.88;9.40;;;23.80;99.90;;;;;;5104502;28;20091;-69
2022/06/28 05:16:26;;;;;;;11.40;8.18;;;24.80;99.90;;;;;;5103934;28;20054;-68
2022/06/28 05:18:52;;;;;;;11.40;8.43;;;24.70;99.90;;;;;;5103980;28;20036;-68
2022/06/28 05:21:18;;;;;;;11.57;8.05;;;25.50;99.90;;;;;;5085520;28;20058;-68
2022/06/28 05:23:44;;;;;;;9.82;8.52;;;25.80;99.90;;;;;;5102911;28;20090;-68
2022/06/28 05:26:09;;;;;;;10.30;7.38;;;25.90;99.90;;;;;;5104108;28;20089;-68
2022/06/28 05:28:35;;;;;;;11.00;7.88;;;26.40;99.40;;;;;;5087075;28;20066;-68
2022/06/28 05:31:01;;;;;;;9.95;7.63;;;26.40;94.00;;;;;;5086472;28;20071;-67
2022/06/28 05:33:26;;;;;;;12.25;7.60;;;26.90;95.80;;;;;;5104643;28;20037;-68
2022/06/28 05:35:52;;;;;;;9.68;7.43;;;;;;;;;;5086127;28;20075;-68
2022/06/28 05:38:18;;;;;;;10.77;7.68;;;27.30;90.40;;;;;;5104958;28;20035;-67
2022/06/28 05:40:44;;;;;;;10.73;7.40;;;27.40;91.80;;;;;;5101998;28;20039;-67
2022/06/28 05:43:09;;;;;;;9.98;6.82;;;27.20;90.90;;;;;;5089522;28;20346;-67
2022/06/28 05:45:35;;;;;;;9.48;7.15;;;27.30;88.60;;;;;;5090168;28;20051;-65
2022/06/28 05:48:01;;;;;;;19.13;7.55;;;27.30;88.80;;;;;;5102838;28;20032;-65
2022/06/28 05:50:27;;;;;;;16.38;6.82;;;26.90;91.00;;;;;;5084766;28;20047;-65
2022/06/28 05:52:53;;;;;;;12.48;7.03;;;27.00;89.10;;;;;;5103262;28;20032;-65
2022/06/28 05:55:18;;;;;;;10.80;6.75;;;26.90;80.60;;;;;;5084191;28;20047;-65
2022/06/28 05:57:44;;;;;;;12.93;6.47;;;28.20;84.80;;;;;;5094740;28;20039;-65
2022/06/28 06:00:10;;;;;;;15.15;7.05;;;28.60;74.40;;;;;;5103257;28;20047;-65
2022/06/28 06:02:36;;;;;;;14.45;6.80;;;28.90;77.90;;;;;;5102605;28;20318;-65
2022/06/28 06:05:05;;;;;;;12.10;6.88;;;29.80;76.30;;;;;;5102897;28;20084;-65
2022/06/28 06:07:31;;;;;;;10.90;6.43;;;;;;;;;;5081990;28;20043;-65
2022/06/28 06:09:57;;;;;;;12.48;6.13;;;29.50;73.00;;;;;;5103097;28;20086;-65
2022/06/28 06:12:23;;;;;;;25.10;7.47;;;;;;;;;;5103259;28;20032;-65
2022/06/28 06:14:50;;;;;;;14.60;6.20;;;30.60;68.50;;;;;;5103131;28;20056;-65
2022/06/28 06:17:15;;;;;;;11.35;6.15;;;30.70;67.60;;;;;;5103117;28;20059;-65
2022/06/28 06:19:42;;;;;;;13.73;6.22;;;31.20;65.00;;;;;;5102901;28;20048;-65
2022/06/28 06:22:07;;;;;;;11.50;5.65;;;31.20;64.40;;;;;;5102816;28;20103;-65
2022/06/28 06:24:33;;;;;;;14.60;5.82;;;31.00;64.10;;;;;;5103404;28;20047;-65
2022/06/28 06:26:59;;;;;;;32.92;7.55;;;31.60;63.80;;;;;;5101936;28;20113;-65
2022/06/28 06:29:25;;;;;;;71.82;9.98;;;31.10;63.10;;;;;;5100946;28;20217;-65
2022/06/28 06:31:51;;;;;;;13.88;5.47;;;32.20;61.70;;;;;;5102533;28;20225;-65
2022/06/28 06:34:16;;;;;;;11.82;4.95;;;32.10;60.40;;;;;;5102535;28;20044;-66
2022/06/28 06:36:44;;;;;;;13.55;5.40;;;31.70;60.20;;;;;;5103005;28;20032;-65
2022/06/28 06:39:10;;;;;;;13.85;5.20;;;32.30;59.20;;;;;;5102929;28;20070;-66
2022/06/28 06:41:36;;;;;;;18.30;4.93;;;32.50;51.80;;;;;;5102979;28;20039;-65
2022/06/28 06:44:02;;;;;;;17.30;4.30;;;33.10;57.90;;;;;;5102553;28;20041;-66
2022/06/28 06:46:28;;;;;;;10.20;4.25;;;32.70;57.00;;;;;;5102668;28;20040;-66
2022/06/28 06:48:54;;;;;;;11.32;4.80;;;30.80;55.70;;;;;;5084937;28;20214;-65
2022/06/28 06:51:20;;;;;;;13.63;4.70;;;31.80;56.60;;;;;;5102816;28;20028;-65
2022/06/28 06:53:46;;;;;;;13.32;4.90;;;31.30;58.50;;;;;;5102532;28;20321;-65
2022/06/28 06:56:12;;;;;;;11.52;4.70;;;31.20;51.30;;;;;;5102388;28;20064;-65
2022/06/28 06:58:38;;;;;;;11.15;4.50;;;31.10;53.50;;;;;;5102500;28;20028;-65
2022/06/28 07:01:04;;;;;;;15.32;5.30;;;31.90;58.60;;;;;;5101990;28;20321;-66
2022/06/28 07:03:30;;;;;;;13.80;4.53;;;31.20;58.40;;;;;;5102715;28;20036;-64
2022/06/28 07:05:55;;;;;;;18.17;4.90;;;31.10;59.90;;;;;;5101701;28;20124;-65
2022/06/28 07:08:21;;;;;;;10.85;4.72;;;30.50;59.80;;;;;;5102316;28;20039;-65
2022/06/28 07:10:47;;;;;;;12.40;4.43;;;30.00;61.20;;;;;;5084184;28;20312;-66
2022/06/28 07:13:13;;;;;;;9.55;4.72;;;30.30;54.00;;;;;;5067299;28;20063;-65
2022/06/28 07:15:39;;;;;;;12.27;4.38;;;29.10;63.00;;;;;;5083918;28;20552;-65
2022/06/28 07:18:05;;;;;;;11.38;4.88;;;29.40;64.30;;;;;;5102083;28;20036;-65
2022/06/28 07:20:31;;;;;;;15.70;5.20;;;29.00;66.00;;;;;;5102082;28;20234;-65
2022/06/28 07:22:57;;;;;;;12.35;4.55;;;28.40;67.20;;;;;;5099115;28;20043;-65
2022/06/28 07:25:22;;;;;;;12.85;5.28;;;28.40;67.30;;;;;;5099435;28;20040;-65
2022/06/28 07:27:48;;;;;;;26.55;5.10;;;;;;;;;;5101572;28;20032;-65
2022/06/28 07:30:14;;;;;;;13.68;5.38;;;27.60;69.60;;;;;;5101942;28;20051;-65
2022/06/28 07:32:40;;;;;;;17.27;4.90;;;28.10;72.50;;;;;;5101572;28;20338;-65
2022/06/28 07:35:07;;;;;;;9.80;4.97;;;27.60;71.00;;;;;;5102525;28;20036;-66
2022/06/28 07:37:33;;;;;;;11.18;4.35;;;28.40;72.00;;;;;;5102208;28;20226;-66
2022/06/28 07:39:59;;;;;;;13.82;4.82;;;28.40;71.80;;;;;;5102756;28;20047;-66
2022/06/28 07:42:25;;;;;;;13.18;5.05;;;28.20;71.40;;;;;;5101899;28;20040;-66
2022/06/28 07:44:51;;;;;;;11.75;4.40;;;28.20;72.50;;;;;;5101080;28;20330;-68
2022/06/28 07:47:16;;;;;;;10.25;4.60;;;28.20;64.10;;;;;;5101643;28;20142;-66
2022/06/28 07:52:33;;;;;;;13.20;4.80;;;;;;;;;;5101746;28;20052;-66
2022/06/28 07:54:59;;;;;;;10.63;4.90;;;27.20;73.70;;;;;;5100973;28;20356;-65
2022/06/28 07:57:25;;;;;;;12.65;4.00;;;27.10;74.60;;;;;;5100590;28;20032;-64
2022/06/28 07:59:51;;;;;;;11.75;5.07;;;27.00;73.20;;;;;;5082472;28;20043;-65
2022/06/28 08:02:17;;;;;;;9.50;4.20;;;27.30;73.70;;;;;;5102094;28;20131;-65
2022/06/28 08:04:42;;;;;;;12.48;5.30;;;27.10;73.60;;;;;;5101219;28;20031;-66
2022/06/28 08:07:08;;;;;;;7.40;4.00;;;27.00;73.40;;;;;;5078049;28;20092;-66
2022/06/28 08:09:34;;;;;;;10.15;4.55;;;27.40;72.50;;;;;;5065035;28;20285;-66
2022/06/28 08:12:00;;;;;;;11.00;4.20;;;26.90;73.90;;;;;;5101466;28;20040;-66
2022/06/28 08:14:27;;;;;;;12.70;4.35;;;26.90;67.00;;;;;;5101371;28;20105;-66
2022/06/28 08:16:53;;;;;;;13.63;4.70;;;26.20;76.00;;;;;;5099311;28;20137;-66
2022/06/28 08:19:19;;;;;;;11.18;3.95;;;26.30;68.90;;;;;;5083152;28;20349;-66
2022/06/28 08:21:45;;;;;;;7.53;3.10;;;26.40;76.30;;;;;;5081916;28;20047;-66
2022/06/28 08:24:11;;;;;;;11.00;3.10;;;26.50;74.90;;;;;;5100969;28;20051;-66
2022/06/28 08:26:42;;;;;;;16.38;3.65;;;26.50;67.80;;;;;;5100326;28;20032;-66
2022/06/28 08:29:12;;;;;;;7.93;3.83;;;26.80;75.10;;;;;;5100233;28;20036;-66
2022/06/28 08:31:38;;;;;;;14.10;3.60;;;25.60;74.80;;;;;;5099895;28;20039;-66
2022/06/28 08:34:04;;;;;;;25.05;4.60;;;26.20;68.50;;;;;;5082943;28;20064;-66
2022/06/28 08:36:30;;;;;;;11.68;3.22;;;26.60;79.40;;;;;;5101057;28;20046;-66
2022/06/28 08:38:56;;;;;;;11.15;3.15;;;26.70;77.70;;;;;;5091706;28;20045;-66
2022/06/28 08:41:30;;;;;;;11.77;3.28;;;26.20;76.30;;;;;;5081227;28;20218;-66
2022/06/28 08:43:56;;;;;;;15.15;3.53;;;26.10;77.30;;;;;;5080961;28;20230;-66
2022/06/28 08:46:22;;;;;;;11.23;2.97;;;26.00;69.40;;;;;;5081072;28;20051;-66
2022/06/28 08:48:53;;;;;;;13.27;3.28;;;25.80;70.20;;;;;;5079977;28;20071;-66
2022/06/28 08:51:20;;;;;;;11.07;2.55;;;25.40;77.30;;;;;;5080847;28;20240;-66
2022/06/28 08:53:48;;;;;;;9.95;2.20;;;25.40;76.00;;;;;;5081160;28;20040;-66
2022/06/28 08:56:15;;;;;;;10.57;2.50;;;24.60;76.90;;;;;;5080928;28;20040;-67
2022/06/28 08:58:43;;;;;;;7.70;2.58;;;25.80;75.90;;;;;;5066779;28;20068;-66
2022/06/28 09:01:11;;;;;;;10.27;2.50;;;25.60;69.10;;;;;;5103594;28;20099;-66
2022/06/28 09:03:38;;;;;;;9.63;2.83;;;25.60;74.60;;;;;;5085280;28;20146;-66
2022/06/28 09:06:04;;;;;;;18.17;2.97;;;25.50;74.60;;;;;;5103440;28;20059;-66
2022/06/28 09:08:30;;;;;;;7.97;3.10;;;25.70;68.00;;;;;;5103725;28;20032;-66
2022/06/28 09:10:56;;;;;;;11.95;2.85;;;25.60;67.30;;;;;;5103647;28;20094;-66
2022/06/28 09:13:22;;;;;;;8.68;2.90;;;25.60;74.50;;;;;;5100382;28;20067;-67
2022/06/28 09:15:47;;;;;;;7.18;2.40;;;24.50;74.10;;;;;;5088608;28;20067;-65
2022/06/28 09:18:13;;;;;;;6.95;2.53;;;25.00;67.90;;;;;;5084993;28;20040;-66
2022/06/28 09:20:39;;;;;;;13.25;3.00;;;24.90;67.70;;;;;;5103795;28;20040;-65
2022/06/28 09:23:21;;;;;;;6.93;2.47;;;25.00;74.60;;;;;;5085959;28;20054;-65
2022/06/28 09:25:47;;;;;;;6.75;2.40;;;24.70;67.00;;;;;;5103846;28;20044;-67
2022/06/28 09:28:28;;;;;;;7.63;2.00;;;24.70;67.60;;;;;;5086231;28;20043;-66
2022/06/28 09:31:16;;;;;;;13.30;2.47;;;24.70;74.00;;;;;;5079808;28;20052;-67
2022/06/28 09:33:47;;;;;;;7.85;2.38;;;24.70;65.60;;;;;;5083927;28;20052;-66
2022/06/28 09:36:15;;;;;;;12.27;2.92;;;24.80;65.90;;;;;;5084258;28;20110;-66
2022/06/28 09:38:42;;;;;;;8.82;2.30;;;24.90;66.40;;;;;;5084118;28;20036;-65
2022/06/28 09:41:22;;;;;;;7.13;2.25;;;24.90;66.20;;;;;;5082939;28;20074;-66
2022/06/28 09:43:59;;;;;;;5.72;2.13;;;24.80;63.00;;;;;;5082823;28;20182;-66
2022/06/28 09:46:27;;;;;;;6.50;2.00;;;25.10;72.90;;;;;;5065208;28;20072;-65
2022/06/28 09:49:06;;;;;;;6.28;2.40;;;25.00;64.40;;;;;;5065277;28;20273;-65
2022/06/28 09:51:33;;;;;;;8.18;2.60;;;25.30;73.20;;;;;;5065263;28;20048;-65
2022/06/28 09:54:03;;;;;;;10.20;2.65;;;24.80;64.70;;;;;;5065188;28;20122;-65
2022/06/28 09:56:34;;;;;;;7.97;2.58;;;25.30;74.40;;;;;;5083037;28;20044;-65
2022/06/28 09:59:00;;;;;;;8.02;2.70;;;24.80;67.00;;;;;;5082626;28;20041;-65
2022/06/28 10:01:26;;;;;;;7.82;2.30;;;24.70;67.20;;;;;;5082564;28;20036;-65
2022/06/28 10:03:53;;;;;;;7.30;2.78;;;24.70;65.70;;;;;;5082924;28;20040;-65
2022/06/28 10:06:21;;;;;;;7.15;2.67;;;25.00;71.80;;;;;;5083043;28;20044;-65
2022/06/28 10:08:47;;;;;;;8.32;2.78;;;24.60;65.20;;;;;;5099125;28;20216;-66
2022/06/28 10:11:14;;;;;;;6.25;2.35;;;24.50;75.10;;;;;;5103294;28;20048;-65
2022/06/28 10:16:47;;;;;;;7.97;2.50;;;24.60;65.40;;;;;;5101738;28;20040;-66
2022/06/28 10:19:18;;;;;;;10.85;2.53;;;24.60;64.70;;;;;;5102576;28;20100;-65
2022/06/28 10:22:07;;;;;;;7.35;2.60;;;24.60;65.40;;;;;;5099022;28;20067;-66
2022/06/28 10:25:16;;;;;;;9.13;2.60;;;24.60;66.00;;;;;;5102096;28;20078;-66
2022/06/28 10:27:49;;;;;;;4.63;2.08;;;24.10;74.70;;;;;;4999842;28;20194;-66
2022/06/28 10:30:19;;;;;;;7.45;2.20;;;24.70;65.30;;;;;;4999980;28;20078;-66
2022/06/28 10:32:46;;;;;;;13.35;2.30;;;24.70;64.00;;;;;;4983516;28;20046;-65
2022/06/28 10:35:36;;;;;;;4.40;2.00;;;24.50;64.30;;;;;;5000231;28;20418;-65
2022/06/28 10:38:07;;;;;;;7.15;2.17;;;24.40;64.10;;;;;;4997283;28;20471;-66
2022/06/28 10:40:39;;;;;;;5.25;2.15;;;24.30;66.00;;;;;;4999196;28;20259;-65
2022/06/28 10:43:05;;;;;;;5.70;1.90;;;24.30;64.20;;;;;;4999652;28;20038;-67
2022/06/28 10:45:59;;;;;;;8.05;1.90;;;25.10;72.40;;;;;;4998741;28;20354;-67
2022/06/28 10:48:25;;;;;;;6.57;2.17;;;24.60;61.50;;;;;;4972544;28;20097;-66
2022/06/28 10:50:59;;;;;;;9.52;2.78;;;24.70;63.00;;;;;;4998505;28;20038;-66
2022/06/28 10:53:32;;;;;;;5.75;2.28;;;23.70;71.20;;;;;;4998533;28;20083;-65
2022/06/28 10:56:12;;;;;;;4.63;2.00;;;25.40;68.20;;;;;;4982456;28;20296;-66
2022/06/28 10:59:02;;;;;;;4.00;1.83;;;25.00;68.70;;;;;;4999163;28;20105;-66
2022/06/28 11:01:41;;;;;;;9.27;1.98;;;24.90;68.00;;;;;;5026170;28;20054;-66
2022/06/28 11:04:19;;;;;;;7.07;2.00;;;24.60;67.30;;;;;;5099584;28;20040;-66
2022/06/28 11:06:46;;;;;;;8.27;2.15;;;25.10;60.50;;;;;;5082734;28;20040;-67
2022/06/28 11:09:18;;;;;;;6.55;1.92;;;25.20;60.50;;;;;;5101385;28;20032;-66
2022/06/28 11:12:10;;;;;;;6.50;2.40;;;25.00;65.60;;;;;;5100837;28;20103;-66
2022/06/28 11:14:54;;;;;;;5.90;2.08;;;25.30;60.50;;;;;;5098767;28;20095;-66
2022/06/28 11:17:33;;;;;;;6.55;2.20;;;25.40;60.30;;;;;;5096766;28;20103;-66
2022/06/28 11:20:02;;;;;;;4.57;2.00;;;25.50;60.00;;;;;;5100201;28;20055;-66
2022/06/28 11:22:29;;;;;;;6.05;2.13;;;25.50;59.60;;;;;;5101146;28;20075;-66
2022/06/28 11:25:00;;;;;;;7.00;2.08;;;25.40;59.70;;;;;;5083056;28;20055;-66
2022/06/28 11:27:26;;;;;;;7.10;1.88;;;25.30;59.20;;;;;;5101135;28;20051;-67
2022/06/28 11:29:54;;;;;;;4.10;1.80;;;24.70;65.30;;;;;;5100372;28;20300;-67
2022/06/28 11:32:29;;;;;;;7.22;2.13;;;24.80;59.10;;;;;;5101447;28;20217;-67
2022/06/28 11:35:01;;;;;;;5.47;2.00;;;24.60;59.30;;;;;;5084064;28;20040;-67
2022/06/28 11:37:28;;;;;;;6.35;2.13;;;24.50;59.10;;;;;;5082265;28;20122;-67
2022/06/28 11:40:00;;;;;;;8.52;1.95;;;24.50;59.20;;;;;;5097942;28;20040;-67
2022/06/28 11:42:27;;;;;;;5.85;2.17;;;24.50;59.10;;;;;;5083290;28;20111;-67
2022/06/28 11:44:53;;;;;;;13.57;2.50;;;24.40;60.40;;;;;;5101682;28;20036;-67
2022/06/28 11:47:20;;;;;;;5.28;1.83;;;24.80;69.00;;;;;;5101604;28;20027;-66
2022/06/28 11:50:09;;;;;;;6.63;2.17;;;24.80;66.00;;;;;;5101346;28;20051;-66
2022/06/28 11:52:50;;;;;;;6.50;2.60;;;25.10;67.90;;;;;;5088167;28;20055;-66
2022/06/28 11:55:18;;;;;;;11.07;2.20;;;26.20;67.60;;;;;;5099048;28;20051;-66
2022/06/28 11:57:44;;;;;;;13.65;2.17;;;25.30;60.20;;;;;;5100564;28;20043;-66
2022/06/28 12:00:13;;;;;;;5.97;1.83;;;26.70;67.20;;;;;;5100780;28;20028;-67
2022/06/28 12:02:49;;;;;;;8.63;2.30;;;25.30;64.70;;;;;;5100829;28;20071;-67
2022/06/28 12:05:34;;;;;;;8.25;2.00;;;25.50;57.20;;;;;;5101561;28;20194;-67
2022/06/28 12:08:01;;;;;;;7.33;1.73;;;25.70;57.70;;;;;;5083201;28;20044;-67
2022/06/28 12:10:32;;;;;;;7.97;2.08;;;25.70;58.10;;;;;;5081704;28;20036;-67
2022/06/28 12:12:59;;;;;;;4.18;1.73;;;25.80;63.20;;;;;;5081448;28;20067;-67
2022/06/28 12:15:32;;;;;;;8.20;2.00;;;25.90;57.80;;;;;;5101152;28;20043;-67
2022/06/28 12:18:07;;;;;;;9.43;1.98;;;26.20;64.20;;;;;;5101000;28;20042;-67
2022/06/28 12:20:34;;;;;;;8.20;2.13;;;25.30;62.10;;;;;;5099434;28;20364;-66
2022/06/28 12:23:05;;;;;;;7.28;1.90;;;26.20;63.20;;;;;;5082685;28;20247;-66
2022/06/28 12:25:32;;;;;;;6.28;1.88;;;26.30;61.20;;;;;;5099685;28;20040;-66
2022/06/28 12:27:59;;;;;;;4.35;1.80;;;26.30;55.70;;;;;;5083473;28;20508;-67
2022/06/28 12:30:25;;;;;;;5.97;2.00;;;26.00;61.60;;;;;;5099277;28;20061;-66
2022/06/28 12:32:52;;;;;;;6.78;1.90;;;26.40;55.60;;;;;;5100951;28;20329;-66
2022/06/28 12:35:19;;;;;;;5.97;1.80;;;26.60;55.80;;;;;;5104768;28;20046;-66
2022/06/28 12:37:45;;;;;;;9.52;2.10;;;26.70;54.90;;;;;;5105096;28;20226;-66
2022/06/28 12:40:12;;;;;;;10.93;1.90;;;26.70;54.70;;;;;;5087155;28;20032;-67
2022/06/28 12:42:39;;;;;;;6.85;1.77;;;26.70;54.20;;;;;;5104294;28;20086;-67
2022/06/28 12:45:05;;;;;;;24.48;2.80;;;26.80;53.90;;;;;;5104407;28;20055;-67
2022/06/28 12:47:33;;;;;;;5.40;1.90;;;26.80;53.70;;;;;;5104982;28;20035;-67
2022/06/28 12:50:02;;;;;;;5.70;1.90;;;26.80;54.70;;;;;;5104309;28;20043;-67
2022/06/28 12:52:29;;;;;;;5.95;1.90;;;26.80;53.50;;;;;;5103933;28;20085;-67
2022/06/28 12:54:58;;;;;;;11.60;2.00;;;26.80;53.70;;;;;;5104039;28;20375;-67
2022/06/28 12:57:25;;;;;;;10.95;1.88;;;26.90;58.90;;;;;;5086190;28;20103;-67
2022/06/28 12:59:50;;;;;;;10.13;1.85;;;28.40;55.20;;;;;;5101900;28;20095;-67